Thunder radar more information blitzortung!


Radar de pluja more information rain snow radar


Visita la nostra xarxa de llocs de meteo:

Template documentation
and downloads

And another site



No particular awareness of the weather is required.    There are no Weather-warnings

Pagina Historial Weather Underground text

Diari Resum Novembre 16, 2017 Unitats:  Tant    Imperial   Mètric
« Previous Dia
SegĂźent Dia »
Diari Setmana Mensual Anual Personalitzada
  Maxima: Minima: Media:
Temperatura: 59.5 °F /  15.3 °C 36.5 °F /  2.5 °C 50.4 °F /  10.2 °C
Punt de rosada: 45.1 °F /  7.3 °C 23.9 °F /  -4.5 °C 34 °F /  1.1 °C
Humitat: 62 % 48 % 53 %
Wind Speed: 6.9 mph /  11.1 km/h - 2.1 mph /  3.3 km/h
RĂ fegues de vent: 6.9 mph /  11.1 km/h - -
Vent:- - South
Pression baro: 30.2 in /  1021.9 hPa 30.1 in /  1018.8 hPa -
Precipitacions: 0 in /  0.0 mm    
Historical Graphs
 
 
Dades de taula per Novembre 16, 2017
Temps Temperatura Punt de rosada Pression baro Vent Wind Speed RĂ fegues de vent Humitat Rainfall Rate (Hourly)
00:04 41.4 °F /  5.2 °C 25 °F /  -3.9 °C 30.1 in /  1018.8 hPa Calm     52 % 0 in /  0.0 mm
00:05 37.2 °F /  2.9 °C 24.6 °F /  -4.1 °C 30.1 in /  1018.8 hPa Calm   2 mph /  3.2 km/h 60 % 0 in /  0.0 mm
00:09 41.2 °F /  5.1 °C 25 °F /  -3.9 °C 30.1 in /  1018.8 hPa Calm     52 % 0 in /  0.0 mm
00:15 37.2 °F /  2.9 °C 24.3 °F /  -4.3 °C 30.1 in /  1018.8 hPa West 1 mph /  1.6 km/h 2 mph /  3.2 km/h 59 % 0 in /  0.0 mm
00:25 37.2 °F /  2.9 °C 24.6 °F /  -4.1 °C 30.1 in /  1018.8 hPa Calm   2 mph /  3.2 km/h 60 % 0 in /  0.0 mm
00:35 37.4 °F /  3.0 °C 24.8 °F /  -4.0 °C 30.1 in /  1018.8 hPa SW 2 mph /  3.2 km/h 2 mph /  3.2 km/h 60 % 0 in /  0.0 mm
00:45 36.7 °F /  2.6 °C 24.1 °F /  -4.4 °C 30.1 in /  1018.8 hPa SW 1 mph /  1.6 km/h 2 mph /  3.2 km/h 60 % 0 in /  0.0 mm
00:55 36.7 °F /  2.6 °C 24.1 °F /  -4.4 °C 30.1 in /  1018.8 hPa SW 1 mph /  1.6 km/h 1 mph /  1.6 km/h 60 % 0 in /  0.0 mm
01:05 36.7 °F /  2.6 °C 24.4 °F /  -4.2 °C 30.1 in /  1018.8 hPa Calm   1 mph /  1.6 km/h 61 % 0 in /  0.0 mm
01:15 37 °F /  2.8 °C 24.4 °F /  -4.2 °C 30.1 in /  1018.8 hPa Calm   2 mph /  3.2 km/h 60 % 0 in /  0.0 mm
01:25 37 °F /  2.8 °C 24.8 °F /  -4.0 °C 30.1 in /  1019.9 hPa Calm   1 mph /  1.6 km/h 61 % 0 in /  0.0 mm
01:35 36.5 °F /  2.5 °C 23.9 °F /  -4.5 °C 30.1 in /  1019.9 hPa WSW 2 mph /  3.2 km/h 3 mph /  4.8 km/h 60 % 0 in /  0.0 mm
01:45 36.5 °F /  2.5 °C 24.3 °F /  -4.3 °C 30.1 in /  1019.9 hPa WSW 1 mph /  1.6 km/h 2 mph /  3.2 km/h 61 % 0 in /  0.0 mm
01:55 36.7 °F /  2.6 °C 24.1 °F /  -4.4 °C 30.1 in /  1019.9 hPa SW 2 mph /  3.2 km/h 2 mph /  3.2 km/h 60 % 0 in /  0.0 mm
02:05 36.9 °F /  2.7 °C 24.6 °F /  -4.1 °C 30.1 in /  1019.9 hPa Calm   2 mph /  3.2 km/h 61 % 0 in /  0.0 mm
02:15 37.6 °F /  3.1 °C 25.3 °F /  -3.7 °C 30.1 in /  1019.9 hPa Calm     61 % 0 in /  0.0 mm
02:25 39 °F /  3.9 °C 27.1 °F /  -2.7 °C 30.1 in /  1019.9 hPa Calm     62 % 0 in /  0.0 mm
02:35 39.2 °F /  4.0 °C 26.4 °F /  -3.1 °C 30.1 in /  1019.9 hPa Calm     60 % 0 in /  0.0 mm
02:45 39.7 °F /  4.3 °C 26.6 °F /  -3.0 °C 30.1 in /  1019.9 hPa SW 1 mph /  1.6 km/h 1 mph /  1.6 km/h 59 % 0 in /  0.0 mm
02:55 41.5 °F /  5.3 °C 28.2 °F /  -2.1 °C 30.1 in /  1019.9 hPa Calm   1 mph /  1.6 km/h 59 % 0 in /  0.0 mm
03:05 42.8 °F /  6.0 °C 28.6 °F /  -1.9 °C 30.1 in /  1019.9 hPa Calm   1 mph /  1.6 km/h 57 % 0 in /  0.0 mm
03:15 43.5 °F /  6.4 °C 29.3 °F /  -1.5 °C 30.1 in /  1018.8 hPa Calm   1 mph /  1.6 km/h 57 % 0 in /  0.0 mm
03:25 45 °F /  7.2 °C 30.2 °F /  -1.0 °C 30.2 in /  1020.9 hPa Calm     56 % 0 in /  0.0 mm
03:35 45 °F /  7.2 °C 29.8 °F /  -1.2 °C 30.2 in /  1020.9 hPa SW 1 mph /  1.6 km/h 1 mph /  1.6 km/h 55 % 0 in /  0.0 mm
03:55 43.7 °F /  6.5 °C 28.6 °F /  -1.9 °C 30.2 in /  1020.9 hPa SW 1 mph /  1.6 km/h 2 mph /  3.2 km/h 55 % 0 in /  0.0 mm
04:05 45.7 °F /  7.6 °C 30 °F /  -1.1 °C 30.2 in /  1020.9 hPa SW 1 mph /  1.6 km/h 2 mph /  3.2 km/h 54 % 0 in /  0.0 mm
04:15 46.9 °F /  8.3 °C 31.1 °F /  -0.5 °C 30.2 in /  1020.9 hPa Calm   2 mph /  3.2 km/h 54 % 0 in /  0.0 mm
04:25 47.8 °F /  8.8 °C 32 °F /  0.0 °C 30.2 in /  1020.9 hPa Calm   3 mph /  4.8 km/h 54 % 0 in /  0.0 mm
04:35 48.6 °F /  9.2 °C 32.7 °F /  0.4 °C 30.2 in /  1020.9 hPa SE 1 mph /  1.6 km/h 2 mph /  3.2 km/h 54 % 0 in /  0.0 mm
10:36 49.3 °F /  9.6 °C 33.3 °F /  0.7 °C 30.2 in /  1021.9 hPa SSE 1.2 mph /  1.9 km/h   54 % 0 in /  0.0 mm
10:37 49.5 °F /  9.7 °C 33.4 °F /  0.8 °C 30.2 in /  1021.9 hPa SE 2.3 mph /  3.7 km/h 2.3 mph /  3.7 km/h 54 % 0 in /  0.0 mm
10:42 49.3 °F /  9.6 °C 32.9 °F /  0.5 °C 30.2 in /  1021.9 hPa East 2.3 mph /  3.7 km/h 2.3 mph /  3.7 km/h 53 % 0 in /  0.0 mm
10:47 50.2 °F /  10.1 °C 33.6 °F /  0.9 °C 30.2 in /  1021.9 hPa WNW 1.2 mph /  1.9 km/h   53 % 0 in /  0.0 mm
10:52 50 °F /  10.0 °C 33.1 °F /  0.6 °C 30.2 in /  1021.9 hPa ESE 2.3 mph /  3.7 km/h 2.3 mph /  3.7 km/h 52 % 0 in /  0.0 mm
10:57 50.2 °F /  10.1 °C 33.3 °F /  0.7 °C 30.2 in /  1021.9 hPa East 3.5 mph /  5.6 km/h 3.5 mph /  5.6 km/h 52 % 0 in /  0.0 mm
11:02 50.7 °F /  10.4 °C 33.6 °F /  0.9 °C 30.2 in /  1021.9 hPa ENE 2.3 mph /  3.7 km/h 2.3 mph /  3.7 km/h 52 % 0 in /  0.0 mm
11:07 51.1 °F /  10.6 °C 34.2 °F /  1.2 °C 30.2 in /  1021.9 hPa WNW 2.3 mph /  3.7 km/h 2.3 mph /  3.7 km/h 52 % 0 in /  0.0 mm
11:12 51.1 °F /  10.6 °C 34.2 °F /  1.2 °C 30.2 in /  1021.9 hPa NW 2.3 mph /  3.7 km/h 2.3 mph /  3.7 km/h 52 % 0 in /  0.0 mm
11:17 51.6 °F /  10.9 °C 34.5 °F /  1.4 °C 30.2 in /  1021.9 hPa NNE 2.3 mph /  3.7 km/h 2.3 mph /  3.7 km/h 52 % 0 in /  0.0 mm
11:22 51.8 °F /  11.0 °C 34.7 °F /  1.5 °C 30.2 in /  1021.9 hPa NNE 2.3 mph /  3.7 km/h 2.3 mph /  3.7 km/h 52 % 0 in /  0.0 mm
11:27 52.2 °F /  11.2 °C 35.1 °F /  1.7 °C 30.2 in /  1021.9 hPa SE 2.3 mph /  3.7 km/h 2.3 mph /  3.7 km/h 52 % 0 in /  0.0 mm
11:32 53.1 °F /  11.7 °C 36 °F /  2.2 °C 30.2 in /  1021.9 hPa East 2.3 mph /  3.7 km/h 2.3 mph /  3.7 km/h 52 % 0 in /  0.0 mm
11:42 54.1 °F /  12.3 °C 36.3 °F /  2.4 °C 30.2 in /  1021.9 hPa East 2.3 mph /  3.7 km/h 2.3 mph /  3.7 km/h 51 % 0 in /  0.0 mm
11:47 53.6 °F /  12.0 °C 36 °F /  2.2 °C 30.2 in /  1021.9 hPa ENE 3.5 mph /  5.6 km/h 3.5 mph /  5.6 km/h 51 % 0 in /  0.0 mm
11:57 53.6 °F /  12.0 °C 36 °F /  2.2 °C 30.2 in /  1021.9 hPa East 2.3 mph /  3.7 km/h 2.3 mph /  3.7 km/h 51 % 0 in /  0.0 mm
12:02 54.1 °F /  12.3 °C 36.3 °F /  2.4 °C 30.2 in /  1021.9 hPa ESE 3.5 mph /  5.6 km/h 3.5 mph /  5.6 km/h 51 % 0 in /  0.0 mm
12:07 54.5 °F /  12.5 °C 36.7 °F /  2.6 °C 30.2 in /  1021.9 hPa East 3.1 mph /  5.0 km/h 3.1 mph /  5.0 km/h 51 % 0 in /  0.0 mm
12:12 54.7 °F /  12.6 °C 36.3 °F /  2.4 °C 30.2 in /  1021.9 hPa ENE 4.6 mph /  7.4 km/h 4.6 mph /  7.4 km/h 50 % 0 in /  0.0 mm
12:17 55.4 °F /  13.0 °C 37.6 °F /  3.1 °C 30.2 in /  1021.9 hPa WSW 1.4 mph /  2.3 km/h   51 % 0 in /  0.0 mm
12:22 55.4 °F /  13.0 °C 37.6 °F /  3.1 °C 30.2 in /  1021.9 hPa ESE 2.3 mph /  3.7 km/h 2.3 mph /  3.7 km/h 51 % 0 in /  0.0 mm
12:27 55.9 °F /  13.3 °C 37.6 °F /  3.1 °C 30.2 in /  1021.9 hPa ENE 3.5 mph /  5.6 km/h 3.5 mph /  5.6 km/h 50 % 0 in /  0.0 mm
12:32 55.9 °F /  13.3 °C 37.6 °F /  3.1 °C 30.2 in /  1021.9 hPa ESE 3.5 mph /  5.6 km/h 3.5 mph /  5.6 km/h 50 % 0 in /  0.0 mm
12:37 55.8 °F /  13.2 °C 37.4 °F /  3.0 °C 30.2 in /  1020.9 hPa ESE 2.9 mph /  4.7 km/h 2.9 mph /  4.7 km/h 50 % 0 in /  0.0 mm
12:42 56.5 °F /  13.6 °C 38.1 °F /  3.4 °C 30.2 in /  1020.9 hPa NNE 1.4 mph /  2.3 km/h 1.4 mph /  2.3 km/h 50 % 0 in /  0.0 mm
12:47 56.8 °F /  13.8 °C 38.5 °F /  3.6 °C 30.2 in /  1020.9 hPa SSE 2.4 mph /  3.9 km/h 2.4 mph /  3.9 km/h 50 % 0 in /  0.0 mm
12:52 57.2 °F /  14.0 °C 38.7 °F /  3.7 °C 30.2 in /  1020.9 hPa ESE 3.5 mph /  5.6 km/h 3.5 mph /  5.6 km/h 50 % 0 in /  0.0 mm
12:57 56.8 °F /  13.8 °C 38.5 °F /  3.6 °C 30.2 in /  1020.9 hPa ENE 2.4 mph /  3.9 km/h 2.4 mph /  3.9 km/h 50 % 0 in /  0.0 mm
13:02 57 °F /  13.9 °C 38.5 °F /  3.6 °C 30.2 in /  1020.9 hPa East 2.3 mph /  3.7 km/h 2.3 mph /  3.7 km/h 50 % 0 in /  0.0 mm
13:07 57.7 °F /  14.3 °C 39.2 °F /  4.0 °C 30.1 in /  1019.9 hPa East 1.2 mph /  1.9 km/h 1.2 mph /  1.9 km/h 50 % 0 in /  0.0 mm
13:12 57.2 °F /  14.0 °C 38.7 °F /  3.7 °C 30.1 in /  1019.9 hPa ESE 3.5 mph /  5.6 km/h 3.5 mph /  5.6 km/h 50 % 0 in /  0.0 mm
13:17 57.6 °F /  14.2 °C 39 °F /  3.9 °C 30.1 in /  1019.9 hPa ESE 3.5 mph /  5.6 km/h 3.5 mph /  5.6 km/h 50 % 0 in /  0.0 mm
13:22 57.7 °F /  14.3 °C 39.2 °F /  4.0 °C 30.1 in /  1019.9 hPa ESE 3.5 mph /  5.6 km/h 3.5 mph /  5.6 km/h 50 % 0 in /  0.0 mm
13:27 57.9 °F /  14.4 °C 39.4 °F /  4.1 °C 30.1 in /  1019.9 hPa SW 3.5 mph /  5.6 km/h 3.5 mph /  5.6 km/h 50 % 0 in /  0.0 mm
13:32 59.2 °F /  15.1 °C 41.2 °F /  5.1 °C 30.1 in /  1019.9 hPa SW 2.3 mph /  3.7 km/h 2.3 mph /  3.7 km/h 51 % 0 in /  0.0 mm
13:37 59.2 °F /  15.1 °C 40.5 °F /  4.7 °C 30.1 in /  1019.9 hPa ESE 2.3 mph /  3.7 km/h 2.3 mph /  3.7 km/h 50 % 0 in /  0.0 mm
13:42 59.2 °F /  15.1 °C 40.5 °F /  4.7 °C 30.1 in /  1019.9 hPa East 1.6 mph /  2.6 km/h   50 % 0 in /  0.0 mm
13:47 59.2 °F /  15.1 °C 40.5 °F /  4.7 °C 30.1 in /  1019.9 hPa ESE 3.5 mph /  5.6 km/h 3.5 mph /  5.6 km/h 50 % 0 in /  0.0 mm
13:52 59 °F /  15.0 °C 40.5 °F /  4.7 °C 30.1 in /  1019.9 hPa ESE 4.6 mph /  7.4 km/h 4.6 mph /  7.4 km/h 50 % 0 in /  0.0 mm
13:57 59.2 °F /  15.1 °C 40.5 °F /  4.7 °C 30.1 in /  1019.9 hPa WSW 3.6 mph /  5.8 km/h 3.6 mph /  5.8 km/h 50 % 0 in /  0.0 mm
14:02 59.2 °F /  15.1 °C 39.9 °F /  4.4 °C 30.1 in /  1019.9 hPa East 4.6 mph /  7.4 km/h 4.6 mph /  7.4 km/h 49 % 0 in /  0.0 mm
14:07 59.4 °F /  15.2 °C 40.3 °F /  4.6 °C 30.1 in /  1019.9 hPa WSW 2.9 mph /  4.7 km/h 2.9 mph /  4.7 km/h 49 % 0 in /  0.0 mm
14:12 59.5 °F /  15.3 °C 40.3 °F /  4.6 °C 30.1 in /  1019.9 hPa SW 2.2 mph /  3.5 km/h 2.2 mph /  3.5 km/h 49 % 0 in /  0.0 mm
14:17 59.4 °F /  15.2 °C 40.3 °F /  4.6 °C 30.1 in /  1019.9 hPa ESE 4.6 mph /  7.4 km/h 4.6 mph /  7.4 km/h 49 % 0 in /  0.0 mm
14:22 59.5 °F /  15.3 °C 40.3 °F /  4.6 °C 30.1 in /  1019.9 hPa ESE 3.5 mph /  5.6 km/h 3.5 mph /  5.6 km/h 49 % 0 in /  0.0 mm
14:27 59.2 °F /  15.1 °C 39.6 °F /  4.2 °C 30.1 in /  1019.9 hPa ESE 4.6 mph /  7.4 km/h 4.6 mph /  7.4 km/h 48 % 0 in /  0.0 mm
14:32 59.2 °F /  15.1 °C 39.6 °F /  4.2 °C 30.1 in /  1019.9 hPa East 4.6 mph /  7.4 km/h 4.6 mph /  7.4 km/h 48 % 0 in /  0.0 mm
14:37 59.2 °F /  15.1 °C 39.6 °F /  4.2 °C 30.1 in /  1019.9 hPa ESE 4.6 mph /  7.4 km/h 4.6 mph /  7.4 km/h 48 % 0 in /  0.0 mm
14:42 59.2 °F /  15.1 °C 39.6 °F /  4.2 °C 30.1 in /  1019.9 hPa ESE 3.5 mph /  5.6 km/h 3.5 mph /  5.6 km/h 48 % 0 in /  0.0 mm
14:47 59.2 °F /  15.1 °C 39.6 °F /  4.2 °C 30.1 in /  1019.9 hPa SE 3.5 mph /  5.6 km/h 3.5 mph /  5.6 km/h 48 % 0 in /  0.0 mm
14:52 59.4 °F /  15.2 °C 39.7 °F /  4.3 °C 30.1 in /  1019.9 hPa ESE 3.5 mph /  5.6 km/h 3.5 mph /  5.6 km/h 48 % 0 in /  0.0 mm
14:57 59.4 °F /  15.2 °C 40.3 °F /  4.6 °C 30.1 in /  1019.9 hPa SE 3.5 mph /  5.6 km/h 3.5 mph /  5.6 km/h 49 % 0 in /  0.0 mm
15:02 59.4 °F /  15.2 °C 40.3 °F /  4.6 °C 30.1 in /  1019.9 hPa East 4.6 mph /  7.4 km/h 4.6 mph /  7.4 km/h 49 % 0 in /  0.0 mm
15:07 59.4 °F /  15.2 °C 40.3 °F /  4.6 °C 30.1 in /  1019.9 hPa ESE 4.6 mph /  7.4 km/h 4.6 mph /  7.4 km/h 49 % 0 in /  0.0 mm
15:12 59.4 °F /  15.2 °C 40.3 °F /  4.6 °C 30.1 in /  1019.9 hPa East 4.6 mph /  7.4 km/h 4.6 mph /  7.4 km/h 49 % 0 in /  0.0 mm
15:17 59.4 °F /  15.2 °C 40.6 °F /  4.8 °C 30.1 in /  1019.9 hPa ESE 4 mph /  6.4 km/h 4 mph /  6.4 km/h 50 % 0 in /  0.0 mm
15:22 59.4 °F /  15.2 °C 40.6 °F /  4.8 °C 30.1 in /  1019.9 hPa ESE 4.6 mph /  7.4 km/h 4.6 mph /  7.4 km/h 50 % 0 in /  0.0 mm
15:27 59.4 °F /  15.2 °C 41.2 °F /  5.1 °C 30.1 in /  1019.9 hPa ESE 6.2 mph /  10.0 km/h 6.2 mph /  10.0 km/h 51 % 0 in /  0.0 mm
15:37 59.4 °F /  15.2 °C 41.2 °F /  5.1 °C 30.1 in /  1019.9 hPa ESE 5.8 mph /  9.3 km/h 5.8 mph /  9.3 km/h 51 % 0 in /  0.0 mm
15:42 59.2 °F /  15.1 °C 41.5 °F /  5.3 °C 30.1 in /  1019.9 hPa ESE 4.6 mph /  7.4 km/h 4.6 mph /  7.4 km/h 52 % 0 in /  0.0 mm
15:47 59.2 °F /  15.1 °C 41.5 °F /  5.3 °C 30.1 in /  1019.9 hPa ESE 3.5 mph /  5.6 km/h 3.5 mph /  5.6 km/h 52 % 0 in /  0.0 mm
15:52 59.4 °F /  15.2 °C 42.3 °F /  5.7 °C 30.1 in /  1019.9 hPa ESE 5.8 mph /  9.3 km/h 5.8 mph /  9.3 km/h 53 % 0 in /  0.0 mm
15:57 59.2 °F /  15.1 °C 42.4 °F /  5.8 °C 30.1 in /  1019.9 hPa ESE 4.6 mph /  7.4 km/h 4.6 mph /  7.4 km/h 54 % 0 in /  0.0 mm
16:02 58.8 °F /  14.9 °C 42.6 °F /  5.9 °C 30.1 in /  1019.9 hPa ENE 6.9 mph /  11.1 km/h 6.9 mph /  11.1 km/h 55 % 0 in /  0.0 mm
16:07 58.6 °F /  14.8 °C 43.3 °F /  6.3 °C 30.1 in /  1019.9 hPa East 5.4 mph /  8.7 km/h 5.4 mph /  8.7 km/h 57 % 0 in /  0.0 mm
16:12 58.5 °F /  14.7 °C 44.2 °F /  6.8 °C 30.1 in /  1019.9 hPa ESE 6.9 mph /  11.1 km/h 6.9 mph /  11.1 km/h 59 % 0 in /  0.0 mm
16:17 58.5 °F /  14.7 °C 44.6 °F /  7.0 °C 30.1 in /  1019.9 hPa SSE 3.5 mph /  5.6 km/h 3.5 mph /  5.6 km/h 60 % 0 in /  0.0 mm
16:22 58.6 °F /  14.8 °C 44.8 °F /  7.1 °C 30.1 in /  1019.9 hPa ESE 4.6 mph /  7.4 km/h 4.6 mph /  7.4 km/h 60 % 0 in /  0.0 mm
16:23 58.6 °F /  14.8 °C 44.8 °F /  7.1 °C 30.1 in /  1019.9 hPa ESE 4.6 mph /  7.4 km/h 4.6 mph /  7.4 km/h 60 % 0 in /  0.0 mm
16:28 58.5 °F /  14.7 °C 45.1 °F /  7.3 °C 30.1 in /  1019.9 hPa ESE 4.6 mph /  7.4 km/h 4.6 mph /  7.4 km/h 61 % 0 in /  0.0 mm
16:33 58.3 °F /  14.6 °C 45 °F /  7.2 °C 30.1 in /  1019.9 hPa ESE 4.6 mph /  7.4 km/h 4.6 mph /  7.4 km/h 61 % 0 in /  0.0 mm
16:38 58.5 °F /  14.7 °C 45.1 °F /  7.3 °C 30.1 in /  1019.9 hPa SSW 3.5 mph /  5.6 km/h 3.5 mph /  5.6 km/h 61 % 0 in /  0.0 mm
16:43 59 °F /  15.0 °C 45.1 °F /  7.3 °C 30.1 in /  1019.9 hPa SW 4.6 mph /  7.4 km/h 4.6 mph /  7.4 km/h 60 % 0 in /  0.0 mm
16:48 59.4 °F /  15.2 °C 44.1 °F /  6.7 °C 30.1 in /  1019.9 hPa WSW 3.5 mph /  5.6 km/h 3.5 mph /  5.6 km/h 57 % 0 in /  0.0 mm
16:53 59.2 °F /  15.1 °C 43.5 °F /  6.4 °C 30.1 in /  1019.9 hPa SSW 4.6 mph /  7.4 km/h 4.6 mph /  7.4 km/h 56 % 0 in /  0.0 mm
16:58 59 °F /  15.0 °C 42.8 °F /  6.0 °C 30.1 in /  1019.9 hPa SSW 2.9 mph /  4.7 km/h 2.9 mph /  4.7 km/h 55 % 0 in /  0.0 mm
17:03 58.8 °F /  14.9 °C 42.6 °F /  5.9 °C 30.1 in /  1019.9 hPa SW 2.3 mph /  3.7 km/h 2.3 mph /  3.7 km/h 55 % 0 in /  0.0 mm
17:13 57.9 °F /  14.4 °C 41.4 °F /  5.2 °C 30.1 in /  1019.9 hPa SW 4.6 mph /  7.4 km/h 4.6 mph /  7.4 km/h 54 % 0 in /  0.0 mm
17:18 57.7 °F /  14.3 °C 41.2 °F /  5.1 °C 30.1 in /  1019.9 hPa SW 2.4 mph /  3.9 km/h 2.4 mph /  3.9 km/h 54 % 0 in /  0.0 mm
17:23 57.2 °F /  14.0 °C 40.6 °F /  4.8 °C 30.1 in /  1019.9 hPa SW 3.5 mph /  5.6 km/h 3.5 mph /  5.6 km/h 54 % 0 in /  0.0 mm
17:28 56.8 °F /  13.8 °C 40.5 °F /  4.7 °C 30.1 in /  1019.9 hPa SW 3.6 mph /  5.8 km/h 3.6 mph /  5.8 km/h 54 % 0 in /  0.0 mm
17:33 56.5 °F /  13.6 °C 39.9 °F /  4.4 °C 30.1 in /  1019.9 hPa SW 2.3 mph /  3.7 km/h 2.3 mph /  3.7 km/h 54 % 0 in /  0.0 mm
17:38 56.1 °F /  13.4 °C 39.2 °F /  4.0 °C 30.1 in /  1019.9 hPa SW 2.3 mph /  3.7 km/h 2.3 mph /  3.7 km/h 53 % 0 in /  0.0 mm
17:43 55.8 °F /  13.2 °C 38.8 °F /  3.8 °C 30.1 in /  1019.9 hPa WSW 2.3 mph /  3.7 km/h 2.3 mph /  3.7 km/h 53 % 0 in /  0.0 mm
17:48 55.4 °F /  13.0 °C 38.5 °F /  3.6 °C 30.1 in /  1019.9 hPa WSW 2.3 mph /  3.7 km/h 2.3 mph /  3.7 km/h 53 % 0 in /  0.0 mm
17:58 54.7 °F /  12.6 °C 37.9 °F /  3.3 °C 30.1 in /  1019.9 hPa WSW 2.2 mph /  3.5 km/h 2.2 mph /  3.5 km/h 53 % 0 in /  0.0 mm
18:03 54.5 °F /  12.5 °C 37.8 °F /  3.2 °C 30.1 in /  1019.9 hPa SW 3.5 mph /  5.6 km/h 3.5 mph /  5.6 km/h 53 % 0 in /  0.0 mm
18:08 54.1 °F /  12.3 °C 37.4 °F /  3.0 °C 30.1 in /  1019.9 hPa SW 2.3 mph /  3.7 km/h 2.3 mph /  3.7 km/h 53 % 0 in /  0.0 mm
18:13 54 °F /  12.2 °C 37.2 °F /  2.9 °C 30.1 in /  1019.9 hPa WSW 2.3 mph /  3.7 km/h 2.3 mph /  3.7 km/h 53 % 0 in /  0.0 mm
18:18 53.8 °F /  12.1 °C 37 °F /  2.8 °C 30.1 in /  1019.9 hPa WSW 2.3 mph /  3.7 km/h 2.3 mph /  3.7 km/h 53 % 0 in /  0.0 mm
18:23 53.6 °F /  12.0 °C 36.9 °F /  2.7 °C 30.1 in /  1019.9 hPa SW 2.3 mph /  3.7 km/h 2.3 mph /  3.7 km/h 53 % 0 in /  0.0 mm
18:28 53.4 °F /  11.9 °C 36.7 °F /  2.6 °C 30.1 in /  1019.9 hPa WSW 2.3 mph /  3.7 km/h 2.3 mph /  3.7 km/h 53 % 0 in /  0.0 mm
18:33 53.2 °F /  11.8 °C 36.5 °F /  2.5 °C 30.1 in /  1019.9 hPa WSW 2.3 mph /  3.7 km/h 2.3 mph /  3.7 km/h 53 % 0 in /  0.0 mm
18:38 53.2 °F /  11.8 °C 36.5 °F /  2.5 °C 30.1 in /  1019.9 hPa WSW 1.4 mph /  2.3 km/h 1.4 mph /  2.3 km/h 53 % 0 in /  0.0 mm
18:43 53.2 °F /  11.8 °C 36.1 °F /  2.3 °C 30.1 in /  1019.9 hPa WSW 2.3 mph /  3.7 km/h 2.3 mph /  3.7 km/h 52 % 0 in /  0.0 mm
18:48 53.1 °F /  11.7 °C 36 °F /  2.2 °C 30.1 in /  1019.9 hPa WSW 1.2 mph /  1.9 km/h 1.2 mph /  1.9 km/h 52 % 0 in /  0.0 mm
18:53 52.9 °F /  11.6 °C 35.8 °F /  2.1 °C 30.1 in /  1019.9 hPa WSW 1.2 mph /  1.9 km/h 1.2 mph /  1.9 km/h 52 % 0 in /  0.0 mm
19:03 52.3 °F /  11.3 °C 35.2 °F /  1.8 °C 30.2 in /  1020.9 hPa WSW 1.4 mph /  2.3 km/h 1.4 mph /  2.3 km/h 52 % 0 in /  0.0 mm
19:08 52.2 °F /  11.2 °C 35.1 °F /  1.7 °C 30.2 in /  1020.9 hPa WSW 1.4 mph /  2.3 km/h 1.4 mph /  2.3 km/h 52 % 0 in /  0.0 mm
19:13 52 °F /  11.1 °C 34.9 °F /  1.6 °C 30.2 in /  1020.9 hPa SW 2.3 mph /  3.7 km/h 2.3 mph /  3.7 km/h 52 % 0 in /  0.0 mm
19:18 52 °F /  11.1 °C 34.9 °F /  1.6 °C 30.2 in /  1020.9 hPa SW 1.4 mph /  2.3 km/h 1.4 mph /  2.3 km/h 52 % 0 in /  0.0 mm
19:23 51.8 °F /  11.0 °C 34.7 °F /  1.5 °C 30.2 in /  1020.9 hPa Calm     52 % 0 in /  0.0 mm
19:28 51.6 °F /  10.9 °C 34.5 °F /  1.4 °C 30.2 in /  1020.9 hPa SW 1.2 mph /  1.9 km/h   52 % 0 in /  0.0 mm
19:33 51.4 °F /  10.8 °C 34.3 °F /  1.3 °C 30.2 in /  1020.9 hPa Calm     52 % 0 in /  0.0 mm
19:38 51.4 °F /  10.8 °C 34.3 °F /  1.3 °C 30.2 in /  1020.9 hPa WSW 2.3 mph /  3.7 km/h 2.3 mph /  3.7 km/h 52 % 0 in /  0.0 mm
19:43 51.3 °F /  10.7 °C 34.7 °F /  1.5 °C 30.2 in /  1020.9 hPa WSW 1.4 mph /  2.3 km/h   53 % 0 in /  0.0 mm
19:48 51.3 °F /  10.7 °C 34.2 °F /  1.2 °C 30.2 in /  1020.9 hPa WSW 2.6 mph /  4.2 km/h 2.6 mph /  4.2 km/h 52 % 0 in /  0.0 mm
19:53 51.3 °F /  10.7 °C 34.2 °F /  1.2 °C 30.2 in /  1020.9 hPa West 2.6 mph /  4.2 km/h 2.6 mph /  4.2 km/h 52 % 0 in /  0.0 mm
19:58 50.9 °F /  10.5 °C 34 °F /  1.1 °C 30.2 in /  1020.9 hPa SW 2.4 mph /  3.9 km/h 2.4 mph /  3.9 km/h 52 % 0 in /  0.0 mm
20:03 50.7 °F /  10.4 °C 33.6 °F /  0.9 °C 30.2 in /  1020.9 hPa WSW 2.9 mph /  4.7 km/h 2.9 mph /  4.7 km/h 52 % 0 in /  0.0 mm
20:08 50.7 °F /  10.4 °C 33.6 °F /  0.9 °C 30.2 in /  1020.9 hPa WSW 3.5 mph /  5.6 km/h 3.5 mph /  5.6 km/h 52 % 0 in /  0.0 mm
20:13 50.5 °F /  10.3 °C 33.6 °F /  0.9 °C 30.2 in /  1020.9 hPa WSW 3.5 mph /  5.6 km/h 3.5 mph /  5.6 km/h 52 % 0 in /  0.0 mm
20:18 50.4 °F /  10.2 °C 32.9 °F /  0.5 °C 30.2 in /  1021.9 hPa WSW 2.6 mph /  4.2 km/h 2.6 mph /  4.2 km/h 51 % 0 in /  0.0 mm
20:23 50.4 °F /  10.2 °C 32.9 °F /  0.5 °C 30.2 in /  1021.9 hPa WSW 1.2 mph /  1.9 km/h 1.2 mph /  1.9 km/h 51 % 0 in /  0.0 mm
20:28 50 °F /  10.0 °C 32.5 °F /  0.3 °C 30.2 in /  1021.9 hPa SW 1.2 mph /  1.9 km/h   51 % 0 in /  0.0 mm
20:33 49.8 °F /  9.9 °C 32.4 °F /  0.2 °C 30.2 in /  1021.9 hPa WSW 1.2 mph /  1.9 km/h 1.2 mph /  1.9 km/h 51 % 0 in /  0.0 mm
20:38 49.6 °F /  9.8 °C 32.2 °F /  0.1 °C 30.2 in /  1021.9 hPa WSW 1.2 mph /  1.9 km/h   51 % 0 in /  0.0 mm
20:43 49.5 °F /  9.7 °C 32.2 °F /  0.1 °C 30.2 in /  1021.9 hPa Calm     51 % 0 in /  0.0 mm
20:48 49.5 °F /  9.7 °C 31.6 °F /  -0.2 °C 30.2 in /  1021.9 hPa Calm     50 % 0 in /  0.0 mm
20:53 49.3 °F /  9.6 °C 31.5 °F /  -0.3 °C 30.2 in /  1021.9 hPa Calm     50 % 0 in /  0.0 mm
20:58 49.1 °F /  9.5 °C 31.3 °F /  -0.4 °C 30.2 in /  1021.9 hPa Calm     50 % 0 in /  0.0 mm
21:03 48.9 °F /  9.4 °C 31.6 °F /  -0.2 °C 30.2 in /  1020.9 hPa Calm     51 % 0 in /  0.0 mm
21:08 48.9 °F /  9.4 °C 31.1 °F /  -0.5 °C 30.2 in /  1020.9 hPa West 2.3 mph /  3.7 km/h 2.3 mph /  3.7 km/h 50 % 0 in /  0.0 mm
21:13 48.9 °F /  9.4 °C 31.1 °F /  -0.5 °C 30.2 in /  1020.9 hPa WNW 1.2 mph /  1.9 km/h 1.2 mph /  1.9 km/h 50 % 0 in /  0.0 mm
21:15 40.8 °F /  4.9 °C 27.7 °F /  -2.4 °C 30.1 in /  1019.9 hPa NNW 1 mph /  1.6 km/h 2 mph /  3.2 km/h 59 % 0 in /  0.0 mm
21:18 48.9 °F /  9.4 °C 31.1 °F /  -0.5 °C 30.2 in /  1021.9 hPa WNW 1.2 mph /  1.9 km/h   50 % 0 in /  0.0 mm
21:23 49.1 °F /  9.5 °C 31.3 °F /  -0.4 °C 30.2 in /  1021.9 hPa WNW 1.2 mph /  1.9 km/h   50 % 0 in /  0.0 mm
21:25 40.6 °F /  4.8 °C 27.3 °F /  -2.6 °C 30.1 in /  1019.9 hPa Calm   2 mph /  3.2 km/h 59 % 0 in /  0.0 mm
21:28 48.7 °F /  9.3 °C 30.9 °F /  -0.6 °C 30.2 in /  1021.9 hPa Calm     50 % 0 in /  0.0 mm
21:33 48.6 °F /  9.2 °C 30.7 °F /  -0.7 °C 30.2 in /  1021.9 hPa SSE 2.6 mph /  4.2 km/h 2.6 mph /  4.2 km/h 50 % 0 in /  0.0 mm
21:35 40.6 °F /  4.8 °C 27.3 °F /  -2.6 °C 30.1 in /  1019.9 hPa North 1 mph /  1.6 km/h 2 mph /  3.2 km/h 59 % 0 in /  0.0 mm
21:38 47.8 °F /  8.8 °C 30 °F /  -1.1 °C 30.2 in /  1021.9 hPa SW 1.2 mph /  1.9 km/h   50 % 0 in /  0.0 mm
21:43 47.5 °F /  8.6 °C 29.7 °F /  -1.3 °C 30.2 in /  1021.9 hPa SW 1.2 mph /  1.9 km/h   50 % 0 in /  0.0 mm
21:45 40.5 °F /  4.7 °C 27.1 °F /  -2.7 °C 30.1 in /  1019.9 hPa Calm   1 mph /  1.6 km/h 59 % 0 in /  0.0 mm
21:48 47.1 °F /  8.4 °C 29.8 °F /  -1.2 °C 30.2 in /  1021.9 hPa Calm     51 % 0 in /  0.0 mm
21:53 46.8 °F /  8.2 °C 29.7 °F /  -1.3 °C 30.2 in /  1021.9 hPa Calm     51 % 0 in /  0.0 mm
21:55 40.1 °F /  4.5 °C 27 °F /  -2.8 °C 30.1 in /  1019.9 hPa WNW 1 mph /  1.6 km/h 1 mph /  1.6 km/h 59 % 0 in /  0.0 mm
21:58 46.6 °F /  8.1 °C 29.5 °F /  -1.4 °C 30.2 in /  1021.9 hPa SW 1.6 mph /  2.6 km/h 1.6 mph /  2.6 km/h 51 % 0 in /  0.0 mm
22:03 46.4 °F /  8.0 °C 29.1 °F /  -1.6 °C 30.2 in /  1021.9 hPa Calm     51 % 0 in /  0.0 mm
22:05 40.1 °F /  4.5 °C 27 °F /  -2.8 °C 30.1 in /  1019.9 hPa Calm     59 % 0 in /  0.0 mm
22:08 46.2 °F /  7.9 °C 29.1 °F /  -1.6 °C 30.2 in /  1021.9 hPa Calm     51 % 0 in /  0.0 mm
22:13 45.9 °F /  7.7 °C 28.8 °F /  -1.8 °C 30.2 in /  1021.9 hPa Calm     51 % 0 in /  0.0 mm
22:15 40.1 °F /  4.5 °C 27 °F /  -2.8 °C 30.1 in /  1019.9 hPa Calm   1 mph /  1.6 km/h 59 % 0 in /  0.0 mm
22:18 45.9 °F /  7.7 °C 28.8 °F /  -1.8 °C 30.2 in /  1021.9 hPa SW 1.2 mph /  1.9 km/h   51 % 0 in /  0.0 mm
22:23 45.7 °F /  7.6 °C 28.9 °F /  -1.7 °C 30.2 in /  1021.9 hPa Calm     52 % 0 in /  0.0 mm
22:25 40.1 °F /  4.5 °C 27 °F /  -2.8 °C 30.1 in /  1019.9 hPa Calm   1 mph /  1.6 km/h 59 % 0 in /  0.0 mm
22:28 45.3 °F /  7.4 °C 28.8 °F /  -1.8 °C 30.2 in /  1021.9 hPa Calm     52 % 0 in /  0.0 mm
22:29 45.3 °F /  7.4 °C 28.8 °F /  -1.8 °C 30.2 in /  1021.9 hPa Calm     52 % 0 in /  0.0 mm
22:34 45.1 °F /  7.3 °C 28.6 °F /  -1.9 °C 30.2 in /  1020.9 hPa Calm     52 % 0 in /  0.0 mm
22:35 39.7 °F /  4.3 °C 26.6 °F /  -3.0 °C 30.1 in /  1019.9 hPa Calm   1 mph /  1.6 km/h 59 % 0 in /  0.0 mm
22:39 45.1 °F /  7.3 °C 28.6 °F /  -1.9 °C 30.2 in /  1020.9 hPa NE 2 mph /  3.2 km/h   52 % 0 in /  0.0 mm
22:44 44.8 °F /  7.1 °C 28.2 °F /  -2.1 °C 30.2 in /  1020.9 hPa NE 2.3 mph /  3.7 km/h 2.3 mph /  3.7 km/h 52 % 0 in /  0.0 mm
22:45 39.7 °F /  4.3 °C 26.6 °F /  -3.0 °C 30.1 in /  1019.9 hPa Calm     59 % 0 in /  0.0 mm
22:49 44.6 °F /  7.0 °C 28.6 °F /  -1.9 °C 30.2 in /  1020.9 hPa ENE 1.2 mph /  1.9 km/h 1.2 mph /  1.9 km/h 53 % 0 in /  0.0 mm
22:54 44.6 °F /  7.0 °C 28.6 °F /  -1.9 °C 30.2 in /  1020.9 hPa Calm     53 % 0 in /  0.0 mm
22:55 39.7 °F /  4.3 °C 26.6 °F /  -3.0 °C 30.1 in /  1019.9 hPa WNW 1 mph /  1.6 km/h 1 mph /  1.6 km/h 59 % 0 in /  0.0 mm
22:59 44.4 °F /  6.9 °C 28.2 °F /  -2.1 °C 30.2 in /  1020.9 hPa Calm     53 % 0 in /  0.0 mm
23:04 44.4 °F /  6.9 °C 28.2 °F /  -2.1 °C 30.2 in /  1020.9 hPa WSW 1.6 mph /  2.6 km/h 1.6 mph /  2.6 km/h 53 % 0 in /  0.0 mm
23:05 39.9 °F /  4.4 °C 26.8 °F /  -2.9 °C 30.1 in /  1019.9 hPa Calm   1 mph /  1.6 km/h 59 % 0 in /  0.0 mm
23:14 44.1 °F /  6.7 °C 28.6 °F /  -1.9 °C 30.2 in /  1020.9 hPa WSW 1.2 mph /  1.9 km/h 1.2 mph /  1.9 km/h 54 % 0 in /  0.0 mm
23:15 39.7 °F /  4.3 °C 26.6 °F /  -3.0 °C 30.1 in /  1019.9 hPa North 1 mph /  1.6 km/h 2 mph /  3.2 km/h 59 % 0 in /  0.0 mm
23:19 44.1 °F /  6.7 °C 28.6 °F /  -1.9 °C 30.2 in /  1021.9 hPa WSW 1.2 mph /  1.9 km/h   54 % 0 in /  0.0 mm
23:24 44.1 °F /  6.7 °C 28.6 °F /  -1.9 °C 30.2 in /  1021.9 hPa WNW 1.2 mph /  1.9 km/h 1.2 mph /  1.9 km/h 54 % 0 in /  0.0 mm
23:25 39.6 °F /  4.2 °C 26.4 °F /  -3.1 °C 30.1 in /  1019.9 hPa Calm   1 mph /  1.6 km/h 59 % 0 in /  0.0 mm
23:29 44.1 °F /  6.7 °C 28.6 °F /  -1.9 °C 30.2 in /  1021.9 hPa ENE 1.6 mph /  2.6 km/h 1.6 mph /  2.6 km/h 54 % 0 in /  0.0 mm
23:30 44.1 °F /  6.7 °C 28.6 °F /  -1.9 °C 30.2 in /  1021.9 hPa ENE 1.6 mph /  2.6 km/h 1.6 mph /  2.6 km/h 54 % 0 in /  0.0 mm
23:35 43.9 °F /  6.6 °C 28.2 °F /  -2.1 °C 30.2 in /  1020.9 hPa NE 1.2 mph /  1.9 km/h 1.2 mph /  1.9 km/h 54 % 0 in /  0.0 mm
23:40 44.1 °F /  6.7 °C 28.6 °F /  -1.9 °C 30.2 in /  1020.9 hPa NE 1.4 mph /  2.3 km/h 1.4 mph /  2.3 km/h 54 % 0 in /  0.0 mm
23:45 44.4 °F /  6.9 °C 28.8 °F /  -1.8 °C 30.2 in /  1020.9 hPa NW 2 mph /  3.2 km/h 2 mph /  3.2 km/h 54 % 0 in /  0.0 mm
23:50 44.6 °F /  7.0 °C 28.9 °F /  -1.7 °C 30.2 in /  1020.9 hPa Calm     54 % 0 in /  0.0 mm
23:55 44.6 °F /  7.0 °C 29.5 °F /  -1.4 °C 30.2 in /  1020.9 hPa NE 2.3 mph /  3.7 km/h 2.3 mph /  3.7 km/h 55 % 0 in /  0.0 mm
Meteo Sesrovires
Elogis d' Weather Underground - 3.5 mb

Guio original per  Jim McMurry - jmcmurry@mwt.net Adaptat per a la plantilla per  Wim van der Kuil - Leuven-Template.eu

Trobareu la nostra informacio del temps tambe a:

Weather Underground

AWEKAS